Aviation Digital Data Service (ADDS)

Output produced by METARs form (0210 UTC 22 April 2019)
found at http://www.aviationweather.gov/metar/data/
 
Forecast for: ETAR (RAMSTEIN (USAFB), DE)
Text: TAF ETAR 220200Z 2202/2308 06009KT 9999 SKC QNH2981INS
Forecast period: 0200 to 0800 UTC 22 April 2019
Forecast type: FROM: standard forecast or significant change
Winds: from the ENE (60 degrees) at 10 MPH (9 knots; 4.6 m/s)
Visibility: 6 or more miles 10+ km)
Clouds: clear skies
Weather: no significant weather forecast for this period
Text: BECMG 2208/2209 08012G20KT 9999 SKC QNH2965INS
Forecast period: 0800 to 1600 UTC 22 April 2019
Forecast type: BECOMING: Conditions expected to become as follows by 0900 UTC 22 April 2019
Winds: from the E (80 degrees) at 14 MPH (12 knots; 6.2 m/s)
gusting to 23 MPH (20 knots; 10.3 m/s)
Visibility: 6 or more miles 10+ km)
Clouds: clear skies
Weather: no significant weather forecast for this period
Text: BECMG 2216/2217 06012KT 9999 FEW200 QNH2949INS TX24/2215Z TN02/2204Z
Forecast period: 1600 UTC 22 April 2019 to 0800 UTC 23 April 2019
Forecast type: BECOMING: Conditions expected to become as follows by 1700 UTC 22 April 2019
Winds: from the ENE (60 degrees) at 14 MPH (12 knots; 6.2 m/s)
Visibility: 6 or more miles 10+ km)
Ceiling: at least 12,000 feet AGL
Clouds: few clouds at 20000 feet AGL
Weather: no significant weather forecast for this period